Miami, Florida
Current Conditions -  °F | °C
As of 4:53 AM on Saturday 20 Dec 2014 (Local Time) from KMIA Reporting Station
Scattered Clouds Scattered Clouds  
Wind Chill: 63°   Ceiling: Unl
Heat Index: 63°   Visibility: 10mi
Dew Point: 58°   Wind: 0mph
Humidity: 84%   Direction: NA
Pressure: 30.04"   Gusts: NA
Location:  25.77°N, 80.19°W
Report Text: KMIA 200953Z 00000KT 10SM FEW037 SCT250 17/14 A3004 RMK AO2 SLP173 T01720144
Loading
Personal Weather Stations






























Interactive Weather Map New forecast layout! Learn more

10-Day Weather Forecast

Advertisements
Track Severe Weather on mobile